Time;durP1;ratioP1;P1;durP2;ratioP2;P2;SDS_P1;SDS_P2;PMS_P1;PMS_P2;Temp;Humidity;BMP_temperature;BMP_pressure;BME280_temperature;BME280_humidity;BME280_pressure;Samples;Min_cycle;Max_cycle;Signal;HPM_P1;HPM_P2
2022/11/23 00:01:47;;;;;;;14.13;12.77;;;2.70;99.90;;;;;;5030332;28;20181;-76
2022/11/23 00:04:13;;;;;;;14.27;12.23;;;2.70;99.90;;;;;;5031936;28;20247;-76
2022/11/23 00:06:40;;;;;;;12.63;11.53;;;2.60;99.90;;;;;;5049828;28;20308;-76
2022/11/23 00:09:06;;;;;;;12.20;10.17;;;2.60;99.90;;;;;;5050540;28;20201;-76
2022/11/23 00:11:34;;;;;;;22.20;20.63;;;2.50;99.90;;;;;;5051144;28;20222;-77
2022/11/23 00:14:00;;;;;;;16.27;14.60;;;2.50;99.90;;;;;;5049927;28;20300;-76
2022/11/23 00:16:28;;;;;;;24.27;22.47;;;2.50;99.90;;;;;;5050325;28;20280;-76
2022/11/23 00:18:56;;;;;;;28.97;26.60;;;2.40;99.90;;;;;;5050945;28;20879;-76
2022/11/23 00:21:23;;;;;;;24.20;22.43;;;2.40;99.90;;;;;;5041174;28;20175;-75
2022/11/23 00:23:49;;;;;;;25.70;23.93;;;2.40;99.90;;;;;;5036133;28;20178;-75
2022/11/23 00:26:16;;;;;;;22.60;20.80;;;2.40;99.90;;;;;;5032278;28;20268;-76
2022/11/23 00:28:43;;;;;;;14.33;13.03;;;2.40;99.90;;;;;;5029343;28;20206;-76
2022/11/23 00:31:10;;;;;;;12.50;10.40;;;2.40;99.90;;;;;;5030958;28;20205;-76
2022/11/23 00:33:36;;;;;;;11.27;10.07;;;2.40;99.90;;;;;;5029726;28;20185;-76
2022/11/23 00:36:05;;;;;;;10.93;9.57;;;2.40;99.90;;;;;;5030771;28;20185;-76
2022/11/23 00:38:31;;;;;;;22.60;20.87;;;2.40;99.90;;;;;;5031416;28;20209;-76
2022/11/23 00:41:06;;;;;;;12.53;11.30;;;2.30;99.90;;;;;;5034763;28;20558;-76
2022/11/23 00:43:32;;;;;;;11.10;10.23;;;2.30;99.90;;;;;;5033649;28;20189;-76
2022/11/23 00:46:19;;;;;;;15.80;14.53;;;2.30;99.90;;;;;;5033292;28;20225;-77
2022/11/23 00:48:48;;;;;;;12.47;9.27;;;2.30;99.90;;;;;;5033966;28;20228;-76
2022/11/23 00:51:17;;;;;;;11.77;9.97;;;2.30;99.90;;;;;;5034447;28;20190;-76
2022/11/23 00:53:43;;;;;;;7.97;7.30;;;2.20;99.90;;;;;;5033483;28;20317;-76
2022/11/23 00:56:09;;;;;;;9.63;8.77;;;2.30;99.90;;;;;;5033344;28;20192;-75
2022/11/23 00:58:38;;;;;;;11.33;10.27;;;2.30;99.90;;;;;;5033964;28;20218;-76
2022/11/23 01:01:03;;;;;;;10.70;9.33;;;2.30;99.90;;;;;;5034643;28;20193;-76
2022/11/23 01:03:30;;;;;;;12.40;11.43;;;2.30;99.90;;;;;;5034573;28;20188;-75
2022/11/23 01:06:02;;;;;;;15.40;14.10;;;2.20;99.90;;;;;;5034751;28;20218;-76
2022/11/23 01:08:28;;;;;;;13.53;12.63;;;2.30;99.90;;;;;;5053621;28;20207;-76
2022/11/23 01:10:59;;;;;;;11.77;8.70;;;2.30;99.90;;;;;;5038511;28;20218;-76
2022/11/23 01:13:25;;;;;;;10.03;9.23;;;2.30;99.90;;;;;;5037707;28;20180;-76
2022/11/23 01:15:51;;;;;;;8.93;8.33;;;2.30;99.90;;;;;;5053101;28;20185;-76
2022/11/23 01:18:17;;;;;;;7.97;7.37;;;2.30;99.90;;;;;;5052583;28;20290;-75
2022/11/23 01:20:42;;;;;;;12.33;11.43;;;2.30;99.90;;;;;;5053150;28;20178;-76
2022/11/23 01:23:08;;;;;;;8.43;7.73;;;2.30;99.90;;;;;;5054147;28;20203;-76
2022/11/23 01:25:37;;;;;;;11.37;10.57;;;2.30;99.90;;;;;;5052828;28;20276;-75
2022/11/23 01:28:03;;;;;;;10.80;8.77;;;2.30;99.90;;;;;;5041687;28;20208;-76
2022/11/23 01:30:29;;;;;;;12.70;11.87;;;2.40;99.90;;;;;;5034061;28;20184;-76
2022/11/23 01:32:54;;;;;;;7.77;7.03;;;2.50;99.90;;;;;;5032991;28;20177;-76
2022/11/23 01:35:20;;;;;;;12.53;11.53;;;2.50;99.90;;;;;;5033963;28;20178;-76
2022/11/23 01:37:46;;;;;;;11.70;10.70;;;2.50;99.90;;;;;;5033567;28;20210;-76
2022/11/23 01:40:12;;;;;;;10.23;9.40;;;2.60;99.90;;;;;;5033952;28;20581;-76
2022/11/23 01:42:53;;;;;;;10.67;9.43;;;2.60;99.90;;;;;;5048770;28;20193;-76
2022/11/23 01:45:42;;;;;;;11.23;10.53;;;2.70;99.90;;;;;;5033699;28;20182;-76
2022/11/23 01:48:16;;;;;;;9.77;9.07;;;2.80;99.90;;;;;;5030112;28;20238;-76
2022/11/23 01:50:45;;;;;;;11.53;10.63;;;2.90;99.90;;;;;;5031808;28;20267;-76
2022/11/23 01:53:11;;;;;;;11.73;11.03;;;2.90;99.90;;;;;;5033478;28;20682;-74
2022/11/23 01:55:37;;;;;;;11.97;11.27;;;2.80;99.90;;;;;;5033888;28;20186;-75
2022/11/23 01:58:05;;;;;;;8.07;7.40;;;2.90;99.90;;;;;;5042503;28;20263;-76
2022/11/23 02:00:31;;;;;;;11.00;9.93;;;2.90;99.90;;;;;;5053378;28;20275;-76
2022/11/23 02:02:59;;;;;;;12.13;11.37;;;2.90;99.90;;;;;;5052179;28;20277;-76
2022/11/23 02:05:30;;;;;;;8.63;7.90;;;2.90;99.90;;;;;;5035414;28;20189;-75
2022/11/23 02:07:59;;;;;;;11.63;10.67;;;2.80;99.90;;;;;;5035013;28;20213;-76
2022/11/23 02:10:25;;;;;;;8.67;8.07;;;2.80;99.90;;;;;;5049747;28;20189;-76
2022/11/23 02:12:52;;;;;;;8.40;7.60;;;2.80;99.90;;;;;;5053205;28;20788;-76
2022/11/23 02:15:18;;;;;;;8.70;7.93;;;2.80;99.90;;;;;;5035297;28;20554;-76
2022/11/23 02:17:44;;;;;;;9.50;8.17;;;2.80;99.90;;;;;;5034804;28;20217;-76
2022/11/23 02:20:13;;;;;;;9.87;8.87;;;2.80;99.90;;;;;;5052803;28;20201;-76
2022/11/23 02:23:01;;;;;;;8.73;7.70;;;2.90;99.90;;;;;;5054697;28;20178;-76
2022/11/23 02:25:44;;;;;;;8.43;7.73;;;3.00;99.90;;;;;;5072613;28;20680;-76
2022/11/23 02:28:34;;;;;;;8.37;7.60;;;3.10;99.90;;;;;;5054244;28;20220;-76
2022/11/23 02:31:01;;;;;;;7.57;6.90;;;3.20;99.90;;;;;;5072715;28;20265;-75
2022/11/23 02:33:27;;;;;;;11.10;10.30;;;3.20;99.90;;;;;;5054828;28;20187;-76
2022/11/23 02:35:58;;;;;;;18.07;16.97;;;3.20;99.90;;;;;;5052779;28;20245;-76
2022/11/23 02:38:29;;;;;;;14.53;9.20;;;3.30;99.90;;;;;;5069586;28;20209;-76
2022/11/23 02:40:55;;;;;;;11.70;10.67;;;3.30;99.90;;;;;;5072423;28;20727;-76
2022/11/23 02:43:22;;;;;;;13.00;12.10;;;3.30;99.90;;;;;;5054515;28;20173;-76
2022/11/23 02:45:55;;;;;;;7.43;6.93;;;3.30;99.90;;;;;;5072430;28;20232;-76
2022/11/23 02:48:21;;;;;;;7.53;6.77;;;3.30;99.90;;;;;;5071958;28;20250;-76
2022/11/23 02:50:46;;;;;;;8.47;7.00;;;3.30;99.90;;;;;;5043359;28;20185;-76
2022/11/23 02:53:13;;;;;;;7.60;6.90;;;3.20;99.90;;;;;;5051538;28;20177;-76
2022/11/23 02:55:39;;;;;;;7.50;6.80;;;3.10;99.90;;;;;;5073174;28;20195;-74
2022/11/23 02:58:05;;;;;;;7.63;6.90;;;3.10;99.90;;;;;;5036847;28;20227;-75
2022/11/23 03:00:32;;;;;;;8.57;7.93;;;3.00;99.90;;;;;;5052306;28;20992;-76
2022/11/23 03:03:00;;;;;;;9.50;8.80;;;2.90;99.90;;;;;;5051252;28;20195;-76
2022/11/23 03:05:26;;;;;;;10.17;8.20;;;2.80;99.90;;;;;;5050663;28;20183;-76
2022/11/23 03:07:52;;;;;;;10.07;6.93;;;2.80;99.90;;;;;;5048978;28;20600;-76
2022/11/23 03:10:20;;;;;;;7.40;6.80;;;2.70;99.90;;;;;;5052233;28;20184;-76
2022/11/23 03:12:45;;;;;;;7.90;7.20;;;2.80;99.90;;;;;;5051880;28;20264;-75
2022/11/23 03:15:11;;;;;;;7.33;6.53;;;2.80;99.90;;;;;;5051780;28;20272;-76
2022/11/23 03:17:37;;;;;;;9.70;6.80;;;2.80;99.90;;;;;;5053976;28;20209;-75
2022/11/23 03:20:03;;;;;;;7.97;7.27;;;2.90;99.90;;;;;;5071879;28;20279;-76
2022/11/23 03:22:29;;;;;;;6.87;6.40;;;2.90;99.90;;;;;;5071834;28;20185;-76
2022/11/23 03:24:56;;;;;;;7.77;7.17;;;2.90;99.90;;;;;;5054282;28;20563;-76
2022/11/23 03:27:22;;;;;;;7.40;6.70;;;2.80;99.90;;;;;;5052576;28;20727;-76
2022/11/23 03:29:48;;;;;;;7.73;7.03;;;2.80;99.90;;;;;;5052583;28;20635;-75
2022/11/23 03:32:14;;;;;;;7.97;7.17;;;2.80;99.90;;;;;;5055777;28;20192;-75
2022/11/23 03:34:40;;;;;;;8.43;7.23;;;2.80;99.90;;;;;;5055865;28;20181;-74
2022/11/23 03:37:05;;;;;;;7.37;6.87;;;2.70;99.90;;;;;;5051693;28;20194;-75
2022/11/23 03:39:31;;;;;;;8.57;6.70;;;2.60;99.90;;;;;;5069751;28;20181;-76
2022/11/23 03:41:57;;;;;;;7.90;7.40;;;2.50;99.90;;;;;;5071850;28;20551;-76
2022/11/23 03:44:23;;;;;;;8.07;7.53;;;2.40;99.90;;;;;;5071492;28;20189;-76
2022/11/23 03:46:49;;;;;;;7.73;7.00;;;2.40;99.90;;;;;;5071578;28;20709;-76
2022/11/23 03:49:15;;;;;;;8.13;7.43;;;2.30;99.90;;;;;;5055657;28;20680;-76
2022/11/23 03:51:41;;;;;;;7.70;7.10;;;2.20;99.90;;;;;;5051394;28;20271;-76
2022/11/23 03:54:07;;;;;;;7.23;6.67;;;2.20;99.90;;;;;;5050118;28;20178;-76
2022/11/23 03:56:32;;;;;;;6.93;6.37;;;2.20;99.90;;;;;;5033390;28;20185;-76
2022/11/23 03:58:58;;;;;;;7.83;6.57;;;2.20;99.90;;;;;;5063620;28;20213;-75
2022/11/23 04:01:25;;;;;;;6.37;5.97;;;2.20;99.90;;;;;;5053481;28;20192;-76
2022/11/23 04:03:51;;;;;;;10.30;9.63;;;2.20;99.90;;;;;;5041960;28;20183;-76
2022/11/23 04:06:16;;;;;;;9.60;8.90;;;2.30;99.90;;;;;;5048452;28;20200;-76
2022/11/23 04:08:42;;;;;;;12.57;11.53;;;2.30;99.90;;;;;;5050720;28;20196;-76
2022/11/23 04:11:08;;;;;;;11.83;10.77;;;2.40;99.90;;;;;;5049992;28;20184;-75
2022/11/23 04:13:34;;;;;;;10.07;9.27;;;2.50;99.90;;;;;;5044511;28;20194;-76
2022/11/23 04:15:59;;;;;;;13.07;11.97;;;2.50;99.90;;;;;;5043796;28;20615;-76
2022/11/23 04:18:25;;;;;;;15.83;14.70;;;2.60;99.90;;;;;;5068182;28;20258;-76
2022/11/23 04:20:51;;;;;;;15.20;13.90;;;2.60;99.90;;;;;;5064685;28;20265;-76
2022/11/23 04:23:17;;;;;;;13.80;12.80;;;2.70;99.90;;;;;;5051864;28;20657;-76
2022/11/23 04:25:45;;;;;;;13.10;12.13;;;2.80;99.90;;;;;;5054507;28;20188;-76
2022/11/23 04:28:10;;;;;;;13.67;12.67;;;2.80;99.90;;;;;;5058554;28;20613;-76
2022/11/23 04:30:36;;;;;;;13.80;12.80;;;2.90;99.90;;;;;;5074532;28;20185;-76
2022/11/23 04:33:02;;;;;;;15.53;14.63;;;2.90;99.90;;;;;;5066423;28;20548;-76
2022/11/23 04:35:28;;;;;;;21.17;19.63;;;3.00;99.90;;;;;;5056406;28;20199;-76
2022/11/23 04:37:53;;;;;;;19.77;18.57;;;3.00;99.90;;;;;;5074307;28;20204;-75
2022/11/23 04:40:19;;;;;;;13.67;12.67;;;3.00;99.90;;;;;;5057309;28;20181;-76
2022/11/23 04:42:45;;;;;;;15.37;14.03;;;3.00;99.90;;;;;;5094653;28;20192;-75
2022/11/23 04:45:10;;;;;;;13.57;12.57;;;3.00;99.90;;;;;;5080689;28;20185;-76
2022/11/23 04:47:36;;;;;;;13.00;11.87;;;3.00;99.90;;;;;;5057477;28;20220;-76
2022/11/23 04:50:02;;;;;;;12.30;11.37;;;3.10;99.90;;;;;;5074944;28;20267;-76
2022/11/23 04:52:28;;;;;;;14.47;13.53;;;3.10;99.90;;;;;;5075223;28;20185;-76
2022/11/23 04:54:54;;;;;;;18.90;17.67;;;3.20;99.90;;;;;;5057823;28;20250;-75
2022/11/23 04:57:20;;;;;;;14.43;13.20;;;3.20;99.90;;;;;;5057598;28;20293;-77
2022/11/23 04:59:46;;;;;;;10.37;9.57;;;3.20;99.90;;;;;;5056711;28;20590;-77
2022/11/23 05:02:12;;;;;;;13.10;12.00;;;3.20;99.90;;;;;;5074456;28;20194;-76
2022/11/23 05:04:38;;;;;;;9.90;8.13;;;3.20;99.90;;;;;;5056648;28;20222;-75
2022/11/23 05:07:03;;;;;;;8.57;7.47;;;3.30;99.90;;;;;;5055837;28;20308;-76
2022/11/23 05:09:29;;;;;;;9.17;6.87;;;3.30;99.90;;;;;;5056293;28;20185;-76
2022/11/23 05:11:55;;;;;;;8.00;7.30;;;3.30;99.90;;;;;;5056353;28;20258;-76
2022/11/23 05:14:21;;;;;;;7.43;6.87;;;3.40;99.90;;;;;;5074049;28;20267;-76
2022/11/23 05:16:46;;;;;;;9.37;7.43;;;3.40;99.90;;;;;;5073692;28;20173;-76
2022/11/23 05:19:12;;;;;;;8.67;7.83;;;3.40;99.90;;;;;;5073942;28;20209;-76
2022/11/23 05:21:38;;;;;;;7.97;7.17;;;3.50;99.90;;;;;;5074200;28;20179;-71
2022/11/23 05:24:04;;;;;;;10.53;9.60;;;3.50;99.90;;;;;;5074062;28;20304;-71
2022/11/23 05:26:29;;;;;;;8.57;7.37;;;3.40;99.90;;;;;;5069339;28;20207;-71
2022/11/23 05:28:56;;;;;;;8.90;8.00;;;3.50;99.90;;;;;;5039269;28;20556;-71
2022/11/23 05:31:22;;;;;;;8.43;7.73;;;3.50;99.90;;;;;;5036004;28;20185;-71
2022/11/23 05:33:47;;;;;;;7.40;6.80;;;3.50;99.90;;;;;;5064301;28;20177;-71
2022/11/23 05:36:13;;;;;;;8.30;7.57;;;3.50;99.90;;;;;;5073542;28;20177;-71
2022/11/23 05:38:39;;;;;;;7.47;6.97;;;3.50;99.90;;;;;;5073164;28;20197;-76
2022/11/23 05:41:06;;;;;;;7.40;6.50;;;3.50;99.90;;;;;;5055839;28;20268;-76
2022/11/23 05:43:32;;;;;;;8.40;7.60;;;3.50;99.90;;;;;;5055483;28;20180;-76
2022/11/23 05:45:59;;;;;;;10.47;9.53;;;3.50;99.90;;;;;;5055425;28;20193;-76
2022/11/23 05:48:25;;;;;;;10.43;9.67;;;3.50;99.90;;;;;;5051548;28;20703;-77
2022/11/23 05:50:50;;;;;;;9.93;9.00;;;3.30;99.90;;;;;;5052602;28;20264;-77
2022/11/23 05:53:16;;;;;;;10.97;8.17;;;3.30;99.90;;;;;;5052311;28;20173;-76
2022/11/23 05:55:42;;;;;;;9.13;8.33;;;3.30;99.90;;;;;;5035417;28;20174;-77
2022/11/23 05:58:08;;;;;;;9.07;8.43;;;3.20;99.90;;;;;;5060145;22;20226;-75
2022/11/23 06:00:34;;;;;;;9.83;8.83;;;3.10;99.90;;;;;;5053245;28;20252;-74
2022/11/23 06:03:00;;;;;;;10.30;9.23;;;3.00;99.90;;;;;;5052142;28;20670;-77
2022/11/23 06:05:27;;;;;;;10.00;7.50;;;3.00;99.90;;;;;;5052097;28;20208;-75
2022/11/23 06:07:52;;;;;;;9.27;8.47;;;2.90;99.90;;;;;;5052600;28;20271;-75
2022/11/23 06:10:19;;;;;;;10.10;7.03;;;2.80;99.90;;;;;;5053221;28;20178;-75
2022/11/23 06:12:44;;;;;;;10.50;8.80;;;2.70;99.90;;;;;;5053533;28;20189;-76
2022/11/23 06:15:11;;;;;;;10.63;8.23;;;2.70;99.90;;;;;;5051788;28;20544;-76
2022/11/23 06:17:37;;;;;;;9.97;9.03;;;2.60;99.90;;;;;;5051186;28;20210;-76
2022/11/23 06:20:05;;;;;;;10.60;9.50;;;2.60;99.90;;;;;;5051529;28;20609;-76
2022/11/23 06:22:31;;;;;;;9.00;8.13;;;2.50;99.90;;;;;;5052750;28;20185;-76
2022/11/23 06:24:57;;;;;;;8.50;7.70;;;2.40;99.90;;;;;;5053088;28;20237;-76
2022/11/23 06:27:22;;;;;;;11.37;8.50;;;2.30;99.90;;;;;;5052046;28;20217;-76
2022/11/23 06:29:48;;;;;;;9.63;8.80;;;2.20;99.90;;;;;;5052556;28;20231;-76
2022/11/23 06:32:14;;;;;;;11.23;10.27;;;2.20;99.90;;;;;;5054084;28;20284;-77
2022/11/23 06:34:40;;;;;;;9.30;8.53;;;2.10;99.90;;;;;;5055735;28;20185;-76
2022/11/23 06:37:06;;;;;;;8.40;7.63;;;2.10;99.90;;;;;;5055852;28;20669;-76
2022/11/23 06:39:32;;;;;;;8.77;7.97;;;2.00;99.90;;;;;;5055101;28;20793;-76
2022/11/23 06:41:58;;;;;;;9.23;8.33;;;1.90;99.90;;;;;;5055488;28;20188;-76
2022/11/23 06:44:24;;;;;;;9.87;8.87;;;1.80;99.90;;;;;;5054166;28;20182;-77
2022/11/23 06:46:50;;;;;;;14.23;13.07;;;1.80;99.90;;;;;;5053218;28;20563;-76
2022/11/23 06:49:18;;;;;;;9.27;8.43;;;1.80;99.90;;;;;;5051212;28;20194;-76
2022/11/23 06:51:45;;;;;;;10.30;7.10;;;1.70;99.90;;;;;;5052486;28;20196;-76
2022/11/23 06:54:11;;;;;;;7.93;7.30;;;1.70;99.90;;;;;;5052556;28;20208;-76
2022/11/23 06:56:37;;;;;;;12.40;11.47;;;1.70;99.90;;;;;;5052044;28;20654;-77
2022/11/23 06:59:03;;;;;;;15.70;14.50;;;1.70;99.90;;;;;;5052275;28;20210;-75
2022/11/23 07:01:29;;;;;;;13.03;11.83;;;1.60;99.90;;;;;;5052427;28;20185;-76
2022/11/23 07:03:55;;;;;;;13.47;11.90;;;1.60;99.90;;;;;;5052236;28;20188;-76
2022/11/23 07:06:21;;;;;;;13.83;12.83;;;1.60;99.90;;;;;;5050763;28;20583;-75
2022/11/23 07:08:47;;;;;;;13.67;12.50;;;1.60;99.90;;;;;;5051733;28;20289;-76
2022/11/23 07:11:12;;;;;;;10.90;9.90;;;1.70;99.90;;;;;;5052665;28;20192;-76
2022/11/23 07:13:39;;;;;;;10.60;9.70;;;1.70;99.90;;;;;;5051080;28;20178;-76
2022/11/23 07:16:06;;;;;;;9.50;8.80;;;1.70;99.90;;;;;;5053231;28;20207;-75
2022/11/23 07:18:32;;;;;;;16.53;15.30;;;1.70;99.90;;;;;;5053860;28;20284;-74
2022/11/23 07:20:58;;;;;;;12.87;11.60;;;1.70;99.90;;;;;;5054565;28;20273;-75
2022/11/23 07:23:25;;;;;;;16.63;13.50;;;1.70;99.90;;;;;;5053813;28;20267;-75
2022/11/23 07:25:51;;;;;;;10.93;9.93;;;1.70;99.90;;;;;;5050376;28;20186;-75
2022/11/23 07:28:17;;;;;;;13.10;11.77;;;1.70;99.90;;;;;;5050013;28;20270;-75
2022/11/23 07:30:43;;;;;;;12.20;11.10;;;1.70;99.90;;;;;;5050520;28;20189;-76
2022/11/23 07:33:10;;;;;;;11.97;10.87;;;1.80;99.90;;;;;;5051590;28;20534;-75
2022/11/23 07:35:38;;;;;;;13.63;12.20;;;1.90;99.90;;;;;;5050530;28;20191;-76
2022/11/23 07:38:06;;;;;;;12.83;11.83;;;2.00;99.90;;;;;;5050101;28;20206;-76
2022/11/23 07:40:34;;;;;;;11.40;10.50;;;2.20;99.90;;;;;;5052083;28;20707;-75
2022/11/23 07:43:04;;;;;;;55.40;52.20;;;2.50;99.90;;;;;;5051027;28;20267;-77
2022/11/23 07:45:30;;;;;;;10.77;9.90;;;2.80;99.90;;;;;;5052680;28;20723;-77
2022/11/23 07:48:05;;;;;;;9.70;8.10;;;3.20;99.90;;;;;;5050074;28;20244;-77
2022/11/23 07:50:31;;;;;;;10.97;10.07;;;3.60;99.90;;;;;;5051368;28;20272;-77
2022/11/23 07:52:57;;;;;;;18.37;16.97;;;3.90;99.90;;;;;;5052150;28;20184;-76
2022/11/23 07:55:23;;;;;;;18.83;17.30;;;4.20;99.90;;;;;;5052209;28;20174;-76
2022/11/23 07:57:53;;;;;;;12.93;9.70;;;4.40;99.90;;;;;;5050546;28;20240;-75
2022/11/23 08:00:20;;;;;;;9.83;8.93;;;4.60;99.90;;;;;;5050732;28;20198;-77
2022/11/23 08:02:46;;;;;;;12.50;11.40;;;4.90;99.90;;;;;;5050952;28;20191;-77
2022/11/23 08:05:12;;;;;;;12.23;11.17;;;5.00;99.90;;;;;;5051473;28;20264;-77
2022/11/23 08:07:38;;;;;;;15.60;12.03;;;5.20;99.90;;;;;;5050516;28;20290;-77
2022/11/23 08:10:04;;;;;;;16.40;15.00;;;5.50;99.90;;;;;;5050946;28;20186;-77
2022/11/23 08:12:30;;;;;;;10.43;9.63;;;5.60;99.90;;;;;;5052357;28;20179;-77
2022/11/23 08:14:56;;;;;;;9.27;8.37;;;5.80;99.90;;;;;;5057249;28;20242;-76
2022/11/23 08:17:22;;;;;;;12.43;9.50;;;5.90;99.90;;;;;;5057690;28;20178;-77
2022/11/23 08:19:47;;;;;;;10.63;7.77;;;6.00;99.90;;;;;;5054673;28;20177;-75
2022/11/23 08:22:13;;;;;;;12.30;11.20;;;6.10;99.90;;;;;;5057024;28;20208;-76
2022/11/23 08:24:39;;;;;;;11.83;10.57;;;6.10;99.90;;;;;;5050494;28;20193;-77
2022/11/23 08:27:05;;;;;;;13.73;12.63;;;6.10;99.90;;;;;;5050146;28;20623;-77
2022/11/23 08:29:30;;;;;;;12.57;11.37;;;6.20;99.90;;;;;;5051152;28;20610;-77
2022/11/23 08:31:56;;;;;;;12.53;11.33;;;6.40;99.90;;;;;;5050562;28;20228;-77
2022/11/23 08:34:22;;;;;;;10.50;9.70;;;6.50;99.90;;;;;;5052271;28;20551;-77
2022/11/23 08:36:48;;;;;;;12.03;10.33;;;6.70;99.90;;;;;;5050646;28;20277;-77
2022/11/23 08:39:14;;;;;;;18.60;17.20;;;6.90;99.90;;;;;;5050367;28;20237;-77
2022/11/23 08:41:42;;;;;;;21.80;20.40;;;7.40;99.90;;;;;;5051618;28;20179;-76
2022/11/23 08:44:10;;;;;;;14.70;13.60;;;7.80;99.90;;;;;;5052057;28;20218;-77
2022/11/23 08:46:36;;;;;;;9.87;8.97;;;8.30;99.90;;;;;;5052278;28;20284;-77
2022/11/23 08:49:02;;;;;;;8.60;7.80;;;9.00;99.90;;;;;;5051828;28;20686;-77
2022/11/23 08:51:28;;;;;;;8.00;7.20;;;9.40;99.90;;;;;;5051587;28;20537;-77
2022/11/23 08:53:54;;;;;;;8.50;7.67;;;9.90;99.90;;;;;;5052367;28;20178;-76
2022/11/23 08:56:20;;;;;;;10.47;9.30;;;10.30;99.90;;;;;;5053280;28;20193;-76
2022/11/23 08:58:46;;;;;;;13.23;12.33;;;10.60;99.90;;;;;;5057044;28;20229;-77
2022/11/23 09:01:14;;;;;;;16.17;14.93;;;10.90;99.90;;;;;;5057562;28;20178;-77
2022/11/23 09:03:41;;;;;;;11.10;10.23;;;11.30;99.90;;;;;;5061741;28;20188;-76
2022/11/23 09:06:07;;;;;;;7.40;6.50;;;11.70;99.90;;;;;;5059437;28;20255;-76
2022/11/23 09:08:34;;;;;;;9.10;8.23;;;11.90;99.90;;;;;;5058879;28;20302;-76
2022/11/23 09:11:02;;;;;;;9.10;6.43;;;12.00;99.90;;;;;;5063347;28;20204;-77
2022/11/23 09:13:28;;;;;;;10.47;6.37;;;12.40;99.90;;;;;;5059587;28;20181;-77
2022/11/23 09:16:02;;;;;;;8.67;7.87;;;12.50;99.90;;;;;;5053622;28;20177;-77
2022/11/23 09:18:33;;;;;;;8.83;8.03;;;12.50;99.90;;;;;;5053875;28;20198;-75
2022/11/23 09:21:04;;;;;;;14.53;13.40;;;12.90;99.90;;;;;;5053120;28;20183;-75
2022/11/23 09:23:31;;;;;;;14.23;12.83;;;13.40;99.90;;;;;;5055291;28;20181;-76
2022/11/23 09:25:58;;;;;;;14.00;11.03;;;14.00;99.90;;;;;;5052881;28;20178;-76
2022/11/23 09:28:26;;;;;;;11.03;10.03;;;14.30;99.90;;;;;;5053383;28;20682;-75
2022/11/23 09:30:52;;;;;;;10.87;9.87;;;14.80;99.90;;;;;;5053823;28;20269;-76
2022/11/23 09:33:18;;;;;;;8.33;7.67;;;15.10;99.90;;;;;;5052434;28;20266;-75
2022/11/23 09:35:43;;;;;;;12.83;9.63;;;14.80;99.90;;;;;;5053636;28;20658;-75
2022/11/23 09:38:09;;;;;;;15.17;14.00;;;14.60;99.90;;;;;;5052168;28;20205;-76
2022/11/23 09:40:38;;;;;;;29.03;27.17;;;15.10;99.90;;;;;;5053857;28;20258;-75
2022/11/23 09:43:38;;;;;;;26.27;24.57;;;15.40;99.90;;;;;;5052510;28;20189;-76
2022/11/23 09:46:20;;;;;;;24.20;22.17;;;15.30;99.90;;;;;;5052053;28;20682;-76
2022/11/23 09:48:49;;;;;;;27.47;25.20;;;15.30;99.90;;;;;;5051862;28;20743;-76
2022/11/23 09:51:17;;;;;;;21.37;19.87;;;15.70;99.90;;;;;;5052174;28;20665;-76
2022/11/23 09:53:57;;;;;;;18.47;16.97;;;15.80;99.90;;;;;;5052317;28;20312;-75
2022/11/23 09:56:26;;;;;;;11.80;10.63;;;15.90;99.90;;;;;;5053538;28;20192;-75
2022/11/23 09:58:55;;;;;;;11.00;10.30;;;16.70;99.90;;;;;;5051814;28;20218;-75
2022/11/23 10:01:21;;;;;;;13.37;12.17;;;16.30;99.90;;;;;;5052186;28;20183;-76
2022/11/23 10:03:47;;;;;;;10.57;9.47;;;16.40;99.90;;;;;;5053088;28;20197;-76
2022/11/23 10:06:24;;;;;;;7.07;6.40;;;17.20;99.90;;;;;;5053160;28;20210;-76
2022/11/23 10:09:17;;;;;;;7.37;6.73;;;17.90;99.60;;;;;;5051515;28;20280;-76
2022/11/23 10:11:50;;;;;;;6.20;5.63;;;18.00;98.20;;;;;;5052577;28;20274;-75
2022/11/23 10:14:22;;;;;;;7.23;6.13;;;17.90;97.50;;;;;;5053092;28;20269;-76
2022/11/23 10:17:08;;;;;;;5.60;4.97;;;17.60;97.70;;;;;;5051502;28;20182;-76
2022/11/23 10:19:55;;;;;;;6.33;5.73;;;17.60;97.20;;;;;;5051646;28;20206;-76
2022/11/23 10:22:36;;;;;;;5.67;5.17;;;17.10;97.30;;;;;;5051555;28;20190;-75
2022/11/23 10:25:16;;;;;;;6.50;4.60;;;17.30;97.30;;;;;;5052894;28;20639;-75
2022/11/23 10:27:46;;;;;;;5.80;5.20;;;17.40;96.50;;;;;;5051053;28;20225;-76
2022/11/23 10:30:14;;;;;;;7.43;6.80;;;17.00;96.80;;;;;;5052908;28;20261;-76
2022/11/23 10:33:05;;;;;;;9.33;8.53;;;17.30;96.50;;;;;;5053033;28;20170;-76
2022/11/23 10:35:34;;;;;;;9.00;8.20;;;17.60;96.20;;;;;;5052556;28;20185;-75
2022/11/23 10:38:16;;;;;;;8.50;7.80;;;18.40;95.20;;;;;;5052037;28;20198;-75
2022/11/23 10:40:48;;;;;;;12.27;11.07;;;19.30;92.70;;;;;;5053201;28;20182;-75
2022/11/23 10:43:20;;;;;;;15.27;13.87;;;18.90;93.10;;;;;;5053451;28;20190;-76
2022/11/23 10:45:47;;;;;;;10.77;9.87;;;19.80;92.00;;;;;;5051610;28;20178;-75
2022/11/23 10:48:33;;;;;;;9.43;8.17;;;20.30;88.90;;;;;;5050764;28;20287;-76
2022/11/23 10:51:27;;;;;;;10.77;8.30;;;20.20;88.80;;;;;;5052558;28;20183;-76
2022/11/23 10:53:57;;;;;;;10.07;9.20;;;20.50;86.20;;;;;;5052308;28;20666;-76
2022/11/23 10:56:23;;;;;;;7.00;6.40;;;21.20;83.90;;;;;;5051235;28;20193;-77
2022/11/23 10:58:49;;;;;;;7.10;6.40;;;21.20;80.20;;;;;;5051366;28;20236;-77
2022/11/23 11:01:24;;;;;;;7.97;6.37;;;21.30;78.40;;;;;;5051909;28;20651;-76
2022/11/23 11:03:52;;;;;;;6.30;5.70;;;21.50;78.00;;;;;;5052080;28;20192;-76
2022/11/23 11:06:29;;;;;;;5.20;4.80;;;22.10;76.50;;;;;;5050826;28;20202;-76
2022/11/23 11:09:04;;;;;;;5.70;4.77;;;21.50;74.40;;;;;;5050219;28;20198;-76
2022/11/23 11:11:33;;;;;;;6.67;6.07;;;21.10;75.20;;;;;;5052410;28;20177;-75
2022/11/23 11:14:15;;;;;;;5.07;4.60;;;20.70;77.00;;;;;;5052048;28;20182;-76
2022/11/23 11:16:51;;;;;;;5.70;5.10;;;21.70;76.70;;;;;;5050563;28;20186;-76
2022/11/23 11:19:25;;;;;;;5.53;4.97;;;22.60;72.00;;;;;;5050512;28;20206;-76
2022/11/23 11:21:50;;;;;;;5.20;4.70;;;22.60;70.60;;;;;;5051757;28;20190;-75
2022/11/23 11:24:42;;;;;;;6.80;6.00;;;22.30;69.20;;;;;;5050906;28;20236;-76
2022/11/23 11:27:19;;;;;;;6.63;5.70;;;23.20;65.50;;;;;;5049843;28;20213;-76
2022/11/23 11:29:44;;;;;;;8.13;7.60;;;22.30;68.20;;;;;;5051629;28;20182;-76
2022/11/23 11:32:48;;;;;;;14.03;13.17;;;22.20;66.40;;;;;;5051803;28;20242;-76
2022/11/23 11:35:18;;;;;;;13.07;12.03;;;22.50;63.40;;;;;;5050519;28;20182;-76
2022/11/23 11:37:48;;;;;;;10.57;9.47;;;22.10;63.30;;;;;;5050088;28;20202;-76
2022/11/23 11:40:19;;;;;;;7.37;6.73;;;22.20;63.20;;;;;;5050347;28;20605;-76
2022/11/23 11:43:15;;;;;;;7.77;6.97;;;22.10;62.50;;;;;;5050290;28;20236;-76
2022/11/23 11:45:45;;;;;;;8.20;7.57;;;22.60;63.90;;;;;;5052846;28;20200;-76
2022/11/23 11:48:46;;;;;;;9.93;9.33;;;23.80;60.50;;;;;;5049655;28;20273;-76
2022/11/23 11:51:21;;;;;;;9.03;8.10;;;22.80;60.50;;;;;;5018210;28;20186;-76
2022/11/23 11:54:02;;;;;;;9.27;8.53;;;22.80;60.80;;;;;;5050212;28;20238;-76
2022/11/23 11:56:44;;;;;;;10.63;9.70;;;23.80;57.40;;;;;;5051234;28;20178;-76
2022/11/23 11:59:27;;;;;;;14.20;13.20;;;24.30;56.30;;;;;;5020878;23;20232;-76
2022/11/23 12:02:14;;;;;;;12.40;11.67;;;23.80;56.60;;;;;;4969858;28;20264;-76
2022/11/23 12:04:55;;;;;;;10.67;10.00;;;22.40;56.20;;;;;;4970000;28;20188;-76
2022/11/23 12:07:28;;;;;;;7.00;6.63;;;20.80;55.50;;;;;;4969353;28;20650;-74
2022/11/23 12:10:02;;;;;;;9.23;8.77;;;20.70;56.70;;;;;;4969769;28;20212;-76
2022/11/23 12:12:30;;;;;;;13.83;13.13;;;20.10;57.30;;;;;;4969736;28;20200;-75
2022/11/23 12:14:56;;;;;;;13.27;12.53;;;19.90;58.10;;;;;;4968612;28;20273;-75
2022/11/23 12:17:37;;;;;;;9.73;9.13;;;21.20;57.30;;;;;;4969344;28;20716;-75
2022/11/23 12:20:17;;;;;;;10.27;9.50;;;21.20;55.10;;;;;;4969591;28;20300;-75
2022/11/23 12:22:58;;;;;;;8.57;8.10;;;21.70;54.80;;;;;;4968471;28;20617;-75
2022/11/23 12:25:33;;;;;;;9.33;8.77;;;21.90;55.00;;;;;;4969508;28;20246;-75
2022/11/23 12:28:33;;;;;;;12.83;11.97;;;21.00;57.80;;;;;;4969077;28;20213;-75
2022/11/23 12:31:15;;;;;;;8.30;7.73;;;21.40;56.40;;;;;;4969853;28;20221;-75
2022/11/23 12:33:53;;;;;;;9.97;9.37;;;20.10;56.60;;;;;;4968356;28;20185;-75
2022/11/23 12:36:35;;;;;;;8.17;7.67;;;20.60;56.40;;;;;;4972905;28;20205;-75
2022/11/23 12:39:13;;;;;;;7.20;6.77;;;21.50;54.70;;;;;;4972635;28;20205;-75
2022/11/23 12:41:45;;;;;;;7.97;7.43;;;21.20;54.00;;;;;;4973139;28;20650;-75
2022/11/23 12:44:52;;;;;;;10.60;9.90;;;20.30;55.60;;;;;;4972524;28;20703;-74
2022/11/23 12:47:36;;;;;;;12.50;11.90;;;20.10;56.70;;;;;;4972461;28;20706;-75
2022/11/23 12:50:11;;;;;;;11.10;10.37;;;20.70;58.50;;;;;;4972674;28;20211;-75
2022/11/23 12:53:02;;;;;;;8.43;8.03;;;20.80;58.40;;;;;;4972573;28;20184;-75
2022/11/23 12:56:06;;;;;;;8.00;7.50;;;22.20;53.30;;;;;;4972957;28;20189;-75
2022/11/23 12:58:33;;;;;;;7.60;7.10;;;21.90;54.10;;;;;;4970808;28;20221;-75